Time;durP1;ratioP1;P1;durP2;ratioP2;P2;SDS_P1;SDS_P2;PMS_P1;PMS_P2;Temp;Humidity;BMP_temperature;BMP_pressure;BME280_temperature;BME280_humidity;BME280_pressure;Samples;Min_cycle;Max_cycle;Signal;HPM_P1;HPM_P2
2021/04/08 00:05:18;;;;;;;;;1.75;1.75;;;;;12.19;38.95;98055.75;4978559;28;102881;-77
2021/04/08 00:13:02;;;;;;;;;2.75;1.50;;;;;12.20;39.12;98052.81;4978300;28;101772;-78
2021/04/08 00:17:00;;;;;;;;;2.25;2.00;;;;;12.12;39.49;98044.97;5019716;28;101602;-77
2021/04/08 00:24:00;;;;;;;;;3.00;2.00;;;;;12.17;39.47;98050.53;4935650;28;103577;-78
2021/04/08 00:27:01;;;;;;;;;2.50;2.00;;;;;12.15;39.24;98055.38;4956259;28;101656;-78
2021/04/08 00:30:06;;;;;;;;;2.00;2.00;;;;;12.13;39.16;98062.88;4934999;28;101508;-77
2021/04/08 00:34:00;;;;;;;;;2.00;2.00;;;;;12.14;39.43;98059.13;4949408;28;102791;-78
2021/04/08 00:48:02;;;;;;;;;1.00;1.00;;;;;12.12;39.15;98063.09;4930436;28;101841;-78
2021/04/08 00:51:01;;;;;;;;;2.50;1.75;;;;;12.10;39.25;98062.50;4925783;28;102088;-78
2021/04/08 00:54:01;;;;;;;;;1.50;1.50;;;;;12.10;39.73;98071.47;4916272;28;103157;-78
2021/04/08 00:57:00;;;;;;;;;3.75;3.00;;;;;12.10;39.64;98070.66;4907708;28;102163;-78
2021/04/08 01:00:32;;;;;;;;;2.50;2.00;;;;;12.10;39.23;98065.22;4926410;28;101977;-78
2021/04/08 01:04:00;;;;;;;;;3.00;3.00;;;;;12.04;39.38;98053.41;4932354;28;102479;-77
2021/04/08 01:07:01;;;;;;;;;4.50;3.00;;;;;12.07;39.21;98059.19;4934492;28;101842;-77
2021/04/08 01:10:07;;;;;;;;;1.75;1.75;;;;;12.08;39.37;98054.59;4935227;28;101289;-78
2021/04/08 01:14:01;;;;;;;;;2.25;2.00;;;;;12.06;39.68;98068.41;4926138;28;102254;-78
2021/04/08 01:17:01;;;;;;;;;2.75;1.75;;;;;12.05;39.70;98055.06;4933955;28;102773;-78
2021/04/08 01:20:30;;;;;;;;;2.50;2.50;;;;;12.05;39.35;98063.19;4935118;28;101362;-77
2021/04/08 01:24:00;;;;;;;;;1.50;1.25;;;;;12.04;39.34;98070.47;4934660;28;102482;-78
2021/04/08 01:27:29;;;;;;;;;3.00;2.00;;;;;12.04;39.15;98058.81;4896481;28;103665;-78
2021/04/08 01:31:01;;;;;;;;;1.25;1.00;;;;;12.03;39.14;98059.84;4939425;28;101724;-78
2021/04/08 01:34:00;;;;;;;;;3.00;2.00;;;;;12.02;38.91;98067.16;4910004;28;101542;-78
2021/04/08 01:37:01;;;;;;;;;2.00;1.00;;;;;12.02;38.95;98045.47;4914357;28;102234;-78
2021/04/08 01:40:28;;;;;;;;;2.00;1.75;;;;;12.01;39.27;98061.97;4861115;28;102225;-78
2021/04/08 01:44:02;;;;;;;;;1.25;1.25;;;;;12.00;39.33;98057.59;4880475;28;101914;-78
2021/04/08 01:47:10;;;;;;;;;2.00;2.00;;;;;11.99;39.09;98061.34;4873171;28;101304;-78
2021/04/08 01:50:32;;;;;;;;;0.25;0.00;;;;;11.99;39.63;98059.47;4854157;28;103030;-78
2021/04/08 01:54:03;;;;;;;;;2.00;2.00;;;;;11.99;39.27;98067.63;4864850;28;101779;-79
2021/04/08 01:57:04;;;;;;;;;3.00;2.00;;;;;11.98;39.58;98065.13;4873007;28;101147;-78
2021/04/08 02:00:01;;;;;;;;;2.00;2.00;;;;;11.96;39.15;98059.09;4875857;28;101550;-78
2021/04/08 02:03:00;;;;;;;;;1.75;1.00;;;;;11.96;39.27;98065.34;4866526;28;101410;-78
2021/04/08 02:06:00;;;;;;;;;2.00;2.00;;;;;11.96;39.26;98065.34;4841241;29;103131;-78
2021/04/08 02:09:01;;;;;;;;;2.00;2.00;;;;;11.95;39.08;98074.53;4855665;29;101668;-78
2021/04/08 02:16:01;;;;;;;;;1.50;1.50;;;;;11.95;39.29;98071.00;4858243;29;102270;-78
2021/04/08 02:18:59;;;;;;;;;2.00;2.00;;;;;11.95;39.22;98071.00;4839648;29;104453;-79
2021/04/08 02:22:07;;;;;;;;;2.00;2.00;;;;;11.93;39.23;98073.91;4848369;29;102892;-78
2021/04/08 02:26:00;;;;;;;;;1.00;1.00;;;;;11.94;39.30;98085.56;4897923;28;101758;-78
2021/04/08 02:29:00;;;;;;;;;1.00;1.00;;;;;11.92;39.39;98071.44;4892458;28;103136;-78
2021/04/08 02:32:00;;;;;;;;;2.00;1.75;;;;;11.91;39.44;98081.44;4882697;28;103744;-78
2021/04/08 02:35:00;;;;;;;;;4.00;2.00;;;;;11.91;39.22;98076.03;4884117;28;101230;-79
2021/04/08 02:38:02;;;;;;;;;2.00;1.00;;;;;11.91;39.15;98075.19;4894843;28;101604;-78
2021/04/08 02:42:01;;;;;;;;;1.00;1.00;;;;;11.90;39.06;98074.38;4901598;28;101720;-78
2021/04/08 02:45:00;;;;;;;;;1.00;1.00;;;;;11.88;39.24;98078.34;4897533;28;102435;-78
2021/04/08 02:48:00;;;;;;;;;1.00;1.00;;;;;11.89;39.07;98088.97;4900034;28;101193;-78
2021/04/08 02:51:05;;;;;;;;;1.25;1.00;;;;;11.88;39.69;98083.78;4909485;28;101517;-78
2021/04/08 02:55:00;;;;;;;;;0.75;0.75;;;;;11.88;38.92;98092.75;4962992;28;101531;-78
2021/04/08 02:58:00;;;;;;;;;1.00;1.00;;;;;11.89;39.16;98093.53;5014913;28;104388;-78
2021/04/08 03:01:00;;;;;;;;;2.00;1.25;;;;;11.86;39.20;98094.00;4997334;28;103005;-79
2021/04/08 03:04:01;;;;;;;;;1.75;1.75;;;;;11.86;39.51;98083.16;4983655;28;101232;-78
2021/04/08 03:07:02;;;;;;;;;1.75;1.75;;;;;11.87;39.24;98084.81;4983446;28;101770;-78
2021/04/08 03:22:02;;;;;;;;;1.00;0.25;;;;;11.98;39.39;98097.63;5015745;28;101623;-79
2021/04/08 03:24:54;;;;;;;;;1.50;1.50;;;;;11.99;39.09;98099.28;4993945;28;102285;-79
2021/04/08 03:28:01;;;;;;;;;4.00;2.00;;;;;12.05;39.13;98107.38;5018122;28;101564;-78
2021/04/08 03:31:00;;;;;;;;;1.25;0.50;;;;;12.06;39.43;98089.25;5008471;28;101592;-79
2021/04/08 03:34:01;;;;;;;;;3.00;1.00;;;;;12.05;39.45;98093.00;5000734;28;102915;-78
2021/04/08 03:37:00;;;;;;;;;1.00;1.00;;;;;12.11;39.00;98100.25;5026701;28;104649;-79
2021/04/08 03:40:00;;;;;;;;;1.00;0.50;;;;;12.08;39.38;98092.53;4997957;28;102798;-79
2021/04/08 03:43:00;;;;;;;;;2.00;1.00;;;;;12.15;38.88;98098.75;5016253;28;102207;-79
2021/04/08 03:46:01;;;;;;;;;0.25;0.00;;;;;12.17;39.15;98112.06;5024806;28;102146;-78
2021/04/08 03:49:00;;;;;;;;;0.00;0.00;;;;;12.16;39.31;98113.94;5001228;28;101935;-79
2021/04/08 03:52:03;;;;;;;;;1.00;1.00;;;;;12.17;39.00;98109.34;5002166;28;101288;-79
2021/04/08 03:55:01;;;;;;;;;0.25;0.25;;;;;12.16;39.50;98122.06;4996937;28;101449;-79
2021/04/08 03:58:08;;;;;;;;;4.00;1.00;;;;;12.17;39.21;98117.47;5006110;28;101135;-78
2021/04/08 04:02:00;;;;;;;;;0.75;0.75;;;;;12.19;39.04;98120.81;5011175;28;101836;-78
2021/04/08 04:05:03;;;;;;;;;2.00;1.50;;;;;12.20;39.31;98127.88;5011083;28;102474;-79
2021/04/08 04:28:37;;;;;;;;;1.00;1.00;;;;;12.15;39.22;98136.69;5028324;28;102203;-79
2021/04/08 04:32:01;;;;;;;;;1.50;1.00;;;;;12.16;39.28;98135.59;5015763;28;101963;-79
2021/04/08 04:35:01;;;;;;;;;1.00;1.00;;;;;12.12;39.50;98122.72;5013148;28;102461;-78
2021/04/08 04:38:01;;;;;;;;;2.25;1.00;;;;;12.13;39.28;98129.81;5034596;28;102541;-78
2021/04/08 04:41:01;;;;;;;;;1.00;1.00;;;;;12.15;38.92;98142.09;5049374;28;103006;-78
2021/04/08 04:44:01;;;;;;;;;1.00;1.00;;;;;12.14;39.20;98135.03;5032146;28;102089;-79
2021/04/08 04:47:02;;;;;;;;;1.25;1.00;;;;;12.13;39.12;98138.78;5026584;28;101308;-79
2021/04/08 04:50:05;;;;;;;;;0.25;0.25;;;;;12.15;39.36;98146.69;5016212;28;101972;-79
2021/04/08 04:53:38;;;;;;;;;1.00;1.00;;;;;12.13;38.80;98141.47;5038424;28;101374;-78
2021/04/08 04:57:02;;;;;;;;;1.00;1.00;;;;;12.13;39.22;98149.63;5031124;28;102150;-79
2021/04/08 05:00:01;;;;;;;;;2.50;1.25;;;;;12.12;39.00;98158.78;4995136;28;103335;-79
2021/04/08 05:03:00;;;;;;;;;1.00;1.00;;;;;12.13;39.02;98162.34;5054127;28;101234;-79
2021/04/08 05:06:00;;;;;;;;;2.00;1.50;;;;;12.12;39.09;98160.66;4957715;28;102207;-78
2021/04/08 05:09:01;;;;;;;;;1.25;1.25;;;;;12.11;39.13;98168.00;4959344;28;101838;-79
2021/04/08 05:12:00;;;;;;;;;0.50;0.50;;;;;12.10;39.08;98166.34;4971151;28;101951;-77
2021/04/08 05:23:01;;;;;;;;;3.00;0.75;;;;;12.10;38.82;98193.44;4952662;28;102021;-78
2021/04/08 05:26:31;;;;;;;;;0.75;0.75;;;;;12.09;39.11;98197.19;4962645;28;101470;-79
2021/04/08 05:30:01;;;;;;;;;0.00;0.00;;;;;12.07;39.36;98194.69;4957485;28;101933;-79
2021/04/08 05:33:00;;;;;;;;;1.00;1.00;;;;;12.07;39.52;98205.53;4941768;28;101736;-79
2021/04/08 05:36:01;;;;;;;;;0.00;0.00;;;;;12.06;39.25;98203.06;4941268;28;104633;-79
2021/04/08 05:39:40;;;;;;;;;0.00;0.00;;;;;12.07;39.11;98199.28;4937152;28;101973;-78
2021/04/08 05:43:01;;;;;;;;;2.50;1.75;;;;;12.07;39.31;98215.53;4948197;28;101873;-78
2021/04/08 05:46:00;;;;;;;;;0.00;0.00;;;;;12.07;39.27;98218.25;4958215;28;101888;-79
2021/04/08 05:49:00;;;;;;;;;1.00;1.00;;;;;12.06;39.33;98227.44;4933404;28;105024;-79
2021/04/08 05:52:04;;;;;;;;;2.00;1.00;;;;;12.06;38.97;98236.41;4948590;28;101327;-79
2021/04/08 05:55:34;;;;;;;;;1.00;1.00;;;;;12.06;39.64;98238.28;4923934;28;101656;-79
2021/04/08 05:59:11;;;;;;;;;1.00;1.00;;;;;12.04;38.84;98243.06;4901617;28;102155;-79
2021/04/08 06:06:01;;;;;;;;;1.00;1.00;;;;;12.04;38.91;98248.50;4997549;28;101464;-78
2021/04/08 06:13:00;;;;;;;;;1.75;0.25;;;;;12.04;39.10;98264.75;5010579;28;101198;-79
2021/04/08 06:16:01;;;;;;;;;2.00;2.00;;;;;12.05;39.17;98258.28;5011082;28;104924;-79
2021/04/08 06:19:01;;;;;;;;;1.00;1.00;;;;;12.03;38.56;98269.34;5016997;28;102152;-79
2021/04/08 06:22:02;;;;;;;;;1.00;1.00;;;;;12.05;39.35;98271.84;5010856;28;101717;-79
2021/04/08 06:28:01;;;;;;;;;2.00;1.00;;;;;12.04;39.59;98275.59;4991670;28;105198;-78
2021/04/08 06:31:01;;;;;;;;;1.00;1.00;;;;;12.04;38.87;98286.44;4996099;28;103269;-79
2021/04/08 06:34:01;;;;;;;;;2.00;1.00;;;;;12.01;39.28;98287.72;5025584;28;103196;-79
2021/04/08 06:37:00;;;;;;;;;1.00;1.00;;;;;12.04;39.07;98292.69;5014637;28;102123;-79
2021/04/08 06:40:30;;;;;;;;;1.00;1.00;;;;;12.04;39.05;98302.69;5021480;28;102849;-78
2021/04/08 06:44:00;;;;;;;;;2.00;2.00;;;;;12.03;38.95;98299.16;5021593;28;101677;-79
2021/04/08 06:47:25;;;;;;;;;1.00;1.00;;;;;12.05;39.55;98304.38;5015002;28;101936;-79
2021/04/08 06:50:54;;;;;;;;;3.50;1.75;;;;;12.04;39.01;98306.25;5001115;28;102827;-79
2021/04/08 06:54:19;;;;;;;;;1.00;1.00;;;;;12.06;38.99;98311.44;5029798;28;102088;-78
2021/04/08 06:57:54;;;;;;;;;1.00;1.00;;;;;12.04;39.33;98310.81;5022292;28;101825;-79
2021/04/08 07:05:58;;;;;;;;;1.50;1.50;;;;;12.07;39.42;98340.19;5026511;28;102565;-78
2021/04/08 07:09:26;;;;;;;;;1.00;1.00;;;;;12.07;39.38;98345.59;5014277;28;101713;-79
2021/04/08 07:21:17;;;;;;;;;2.00;1.00;;;;;12.08;39.55;98364.38;5002228;28;101410;-78
2021/04/08 07:25:17;;;;;;;;;1.00;1.00;;;;;12.08;39.62;98372.50;5006930;28;101445;-79
2021/04/08 07:29:17;;;;;;;;;1.00;1.00;;;;;12.08;39.44;98375.22;4940021;28;101289;-78
2021/04/08 07:52:47;;;;;;;;;1.00;1.00;;;;;12.12;38.88;98424.38;5053413;27;102003;-78
2021/04/08 08:00:46;;;;;;;;;1.00;1.00;;;;;12.12;39.42;98434.41;4976707;28;101406;-78
2021/04/08 08:04:05;;;;;;;;;0.00;0.00;;;;;12.14;38.74;98435.03;5022834;28;101377;-79
2021/04/08 08:07:01;;;;;;;;;1.00;0.75;;;;;12.11;39.22;98439.00;4996649;28;102126;-78
2021/04/08 08:10:05;;;;;;;;;0.00;0.00;;;;;12.13;39.37;98447.75;5017189;28;102413;-78
2021/04/08 08:13:34;;;;;;;;;1.00;1.00;;;;;12.10;38.99;98448.19;5003355;28;101439;-78
2021/04/08 08:17:31;;;;;;;;;0.50;0.00;;;;;12.15;39.10;98455.66;5011102;28;101841;-78
2021/04/08 08:21:30;;;;;;;;;0.00;0.00;;;;;12.11;39.10;98459.84;5012153;28;101541;-78
2021/04/08 08:25:30;;;;;;;;;1.00;1.00;;;;;12.15;39.02;98475.47;5010500;28;103034;-77
2021/04/08 08:29:31;;;;;;;;;1.00;1.00;;;;;12.17;38.74;98476.09;4974592;28;101742;-78
2021/04/08 08:41:32;;;;;;;;;2.00;0.50;;;;;12.20;39.36;98489.22;4995419;28;101589;-79
2021/04/08 08:45:10;;;;;;;;;0.50;0.50;;;;;12.20;39.47;98480.25;4962646;28;102445;-78
2021/04/08 08:49:00;;;;;;;;;0.00;0.00;;;;;12.20;38.96;98491.94;4977684;28;102269;-78
2021/04/08 08:52:02;;;;;;;;;0.00;0.00;;;;;12.19;38.94;98484.00;4955996;28;101281;-78
2021/04/08 08:55:05;;;;;;;;;1.00;0.25;;;;;12.22;39.39;98495.25;4942517;28;103176;-78
2021/04/08 08:58:20;;;;;;;;;1.00;0.00;;;;;12.23;38.93;98490.66;4967219;28;102006;-78
2021/04/08 09:06:32;;;;;;;;;1.50;0.50;;;;;12.24;39.12;98503.19;4994707;28;101740;-78
2021/04/08 09:10:10;;;;;;;;;0.25;0.25;;;;;12.22;38.96;98489.81;5015298;28;101909;-77
2021/04/08 09:14:03;;;;;;;;;1.00;0.00;;;;;12.23;38.73;98505.06;5003249;28;102058;-78
2021/04/08 09:17:01;;;;;;;;;1.00;0.00;;;;;12.21;38.94;98503.59;4984579;28;102704;-79
2021/04/08 09:20:34;;;;;;;;;1.25;0.50;;;;;12.20;39.13;98507.38;4905251;28;105117;-78
2021/04/08 09:24:39;;;;;;;;;0.50;0.50;;;;;12.20;38.77;98510.06;4854692;29;101318;-78
2021/04/08 09:28:42;;;;;;;;;0.00;0.00;;;;;12.18;38.95;98514.88;4790114;29;102603;-79
2021/04/08 09:32:33;;;;;;;;;0.50;0.00;;;;;12.20;39.06;98551.56;4788555;29;102987;-78
2021/04/08 09:36:04;;;;;;;;;0.00;0.00;;;;;12.21;39.43;98547.78;4839529;28;102943;-77
2021/04/08 09:40:03;;;;;;;;;0.00;0.00;;;;;12.20;38.93;98538.03;4861369;28;102456;-79
2021/04/08 09:42:56;;;;;;;;;0.00;0.00;;;;;12.18;38.96;98526.53;4927883;28;103184;-79
2021/04/08 09:45:50;;;;;;;;;1.00;0.00;;;;;12.21;38.95;98519.84;4931484;28;101548;-78
2021/04/08 09:48:52;;;;;;;;;0.75;0.75;;;;;12.22;38.94;98532.38;4909664;28;101518;-78
2021/04/08 10:05:04;;;;;;;;;0.00;0.00;;;;;12.25;39.33;98535.47;4991012;28;102092;-78
2021/04/08 10:09:11;;;;;;;;;0.25;0.00;;;;;12.26;38.78;98542.56;4954244;28;102019;-78
2021/04/08 10:13:40;;;;;;;;;0.00;0.00;;;;;12.24;39.02;98541.97;4896972;28;101968;-78
2021/04/08 10:17:36;;;;;;;;;0.00;0.00;;;;;12.23;39.15;98559.28;4915872;28;101891;-78
2021/04/08 10:21:17;;;;;;;;;0.00;0.00;;;;;12.23;38.73;98566.56;4934183;28;101978;-78
2021/04/08 10:25:04;;;;;;;;;0.00;0.00;;;;;12.25;39.19;98569.88;4951965;28;101642;-77
2021/04/08 10:28:59;;;;;;;;;0.00;0.00;;;;;12.25;38.93;98578.84;4937062;28;101437;-77
2021/04/08 10:32:54;;;;;;;;;0.00;0.00;;;;;12.27;39.12;98584.91;4943355;28;101719;-78
2021/04/08 10:35:57;;;;;;;;;0.75;0.00;;;;;12.29;39.00;98598.25;4953504;28;103566;-78
2021/04/08 10:39:45;;;;;;;;;0.75;0.75;;;;;12.31;38.60;98601.56;5006198;28;102587;-77
2021/04/08 10:43:45;;;;;;;;;0.25;0.00;;;;;12.31;39.35;98597.00;5017112;28;101841;-78
2021/04/08 10:51:20;;;;;;;;;0.00;0.00;;;;;12.34;38.96;98590.28;4908229;28;102334;-77
2021/04/08 10:55:04;;;;;;;;;0.00;0.00;;;;;12.33;38.46;98594.91;4939266;28;102071;-78
2021/04/08 10:58:43;;;;;;;;;0.00;0.00;;;;;12.40;38.86;98609.28;5001098;28;101445;-78
2021/04/08 11:02:33;;;;;;;;;1.00;0.75;;;;;12.40;38.51;98622.84;5011294;28;101563;-78
2021/04/08 11:13:03;;;;;;;;;0.00;0.00;;;;;12.44;39.16;98639.50;4976297;28;103784;-78
2021/04/08 11:16:28;;;;;;;;;0.00;0.00;;;;;12.41;38.39;98631.81;4965112;28;101540;-77
2021/04/08 11:20:04;;;;;;;;;0.00;0.00;;;;;12.44;38.99;98628.66;4954650;28;101913;-78
2021/04/08 11:23:28;;;;;;;;;0.00;0.00;;;;;12.45;38.42;98635.75;4965987;28;101803;-79
2021/04/08 11:30:58;;;;;;;;;0.00;0.00;;;;;12.45;39.04;98631.16;4957942;28;101962;-78
2021/04/08 11:35:01;;;;;;;;;0.00;0.00;;;;;12.47;38.44;98639.91;4963919;28;102070;-78
2021/04/08 11:42:53;;;;;;;;;0.00;0.00;;;;;12.53;38.66;98652.63;4947319;28;101862;-78
2021/04/08 11:46:05;;;;;;;;;0.00;0.00;;;;;12.53;38.95;98654.50;4933885;28;103301;-78
2021/04/08 11:49:01;;;;;;;;;0.00;0.00;;;;;12.49;38.46;98643.25;4944759;28;101866;-78
2021/04/08 11:52:31;;;;;;;;;0.00;0.00;;;;;12.52;39.21;98650.97;4913675;28;101681;-78
2021/04/08 11:56:00;;;;;;;;;0.00;0.00;;;;;12.53;38.35;98655.34;4937835;28;101447;-78
2021/04/08 11:59:59;;;;;;;;;0.00;0.00;;;;;12.56;38.74;98658.69;4949001;28;101612;-78
2021/04/08 12:03:29;;;;;;;;;0.00;0.00;;;;;12.58;38.28;98670.16;4909246;28;101804;-78
2021/04/08 12:07:00;;;;;;;;;0.00;0.00;;;;;12.51;38.49;98651.19;4922152;28;103432;-78
2021/04/08 12:10:00;;;;;;;;;0.00;0.00;;;;;12.62;39.22;98668.66;4913352;28;102891;-78
2021/04/08 12:13:29;;;;;;;;;0.00;0.00;;;;;12.60;38.23;98652.63;4913028;28;101622;-79
2021/04/08 12:17:05;;;;;;;;;0.00;0.00;;;;;12.67;38.45;98660.72;4925496;28;101348;-78
2021/04/08 12:20:37;;;;;;;;;0.00;0.00;;;;;12.70;39.14;98666.56;4897145;28;101685;-78
2021/04/08 12:24:31;;;;;;;;;0.00;0.00;;;;;12.74;38.88;98659.66;4913677;28;102056;-78
2021/04/08 12:28:36;;;;;;;;;0.00;0.00;;;;;12.79;39.03;98661.72;4936017;28;102463;-78
2021/04/08 12:36:05;;;;;;;;;0.00;0.00;;;;;12.80;38.31;98658.81;4949233;28;101184;-78
2021/04/08 12:43:02;;;;;;;;;0.00;0.00;;;;;12.84;38.05;98664.63;4970576;28;102046;-79
2021/04/08 12:46:24;;;;;;;;;0.00;0.00;;;;;12.85;38.76;98679.88;4944530;28;101663;-79
2021/04/08 12:49:59;;;;;;;;;0.00;0.00;;;;;12.84;38.52;98722.47;4951387;28;101574;-79
2021/04/08 12:53:03;;;;;;;;;1.00;0.00;;;;;12.83;39.01;98733.56;4984246;28;103293;-78
2021/04/08 12:56:02;;;;;;;;;0.00;0.00;;;;;12.82;38.79;98735.44;4963336;28;101727;-78
2021/04/08 12:59:29;;;;;;;;;0.00;0.00;;;;;12.83;39.12;98730.84;4949289;28;101468;-79
2021/04/08 13:03:01;;;;;;;;;2.00;0.00;;;;;12.81;38.93;98727.50;5006202;28;101703;-77
2021/04/08 13:06:01;;;;;;;;;0.75;0.00;;;;;12.80;38.07;98732.06;4999348;28;102618;-79
2021/04/08 13:09:02;;;;;;;;;0.75;0.00;;;;;12.79;38.54;98727.69;4939887;28;101896;-78
2021/04/08 13:16:00;;;;;;;;;0.00;0.00;;;;;12.79;38.40;98735.84;4958477;28;101960;-78
2021/04/08 13:19:01;;;;;;;;;0.25;0.00;;;;;12.79;38.07;98745.84;4952935;28;101819;-79
2021/04/08 13:22:01;;;;;;;;;0.00;0.00;;;;;12.79;38.68;98754.00;4953125;28;103204;-79
2021/04/08 13:25:29;;;;;;;;;0.00;0.00;;;;;12.77;39.12;98764.25;4944172;28;102182;-79
2021/04/08 13:28:59;;;;;;;;;0.00;0.00;;;;;12.74;38.71;98760.06;4946565;28;102217;-79
2021/04/08 13:31:53;;;;;;;;;1.00;0.00;;;;;12.73;38.66;98765.72;4958699;28;104688;-79
2021/04/08 13:34:59;;;;;;;;;0.00;0.00;;;;;12.72;37.97;98764.03;4938196;28;102107;-78
2021/04/08 13:37:35;;;;;;;;;0.00;0.00;;;;;12.72;39.02;98761.31;4911071;28;102008;-79
2021/04/08 13:40:12;;;;;;;;;0.00;0.00;;;;;12.68;38.53;98760.06;4920801;28;103658;-79
2021/04/08 13:42:50;;;;;;;;;0.00;0.00;;;;;12.68;38.84;98766.34;4903556;28;104414;-79
2021/04/08 13:45:54;;;;;;;;;0.00;0.00;;;;;12.69;38.13;98761.75;4943634;28;103445;-72
2021/04/08 13:48:58;;;;;;;;;0.00;0.00;;;;;12.72;38.24;98766.75;4935336;28;102938;-74
2021/04/08 13:51:33;;;;;;;;;0.25;0.00;;;;;12.79;39.80;98757.53;4916624;28;102244;-74
2021/04/08 13:54:06;;;;;;;;;0.00;0.00;;;;;12.87;41.05;98756.50;4905801;28;103262;-75
2021/04/08 13:56:53;;;;;;;;;0.00;0.00;;;;;12.93;41.30;98761.91;4898596;28;102906;-76
2021/04/08 13:59:26;;;;;;;;;1.00;0.75;;;;;13.05;42.54;98756.66;4951572;28;102427;-75
2021/04/08 14:02:01;;;;;;;;;1.00;1.00;;;;;13.12;41.93;98760.22;4958031;28;101886;-75
2021/04/08 14:04:51;;;;;;;;;2.00;1.00;;;;;13.20;42.35;98756.44;4943104;28;104976;-75
2021/04/08 14:07:28;;;;;;;;;0.00;0.00;;;;;13.31;42.21;98766.63;4975351;28;102630;-75
2021/04/08 14:10:01;;;;;;;;;0.25;0.00;;;;;13.39;42.71;98763.69;4980075;28;102068;-75
2021/04/08 14:12:32;;;;;;;;;0.25;0.25;;;;;13.44;42.85;98769.31;4951904;28;102222;-75
2021/04/08 14:15:01;;;;;;;;;0.50;0.50;;;;;13.56;42.80;98769.44;4975009;28;104166;-75
2021/04/08 14:17:28;;;;;;;;;0.75;0.75;;;;;13.64;42.78;98767.34;4969875;28;101711;-76
2021/04/08 14:19:57;;;;;;;;;0.00;0.00;;;;;13.75;42.48;98763.94;4941959;28;102042;-75
2021/04/08 14:22:29;;;;;;;;;1.00;0.25;;;;;13.83;42.51;98770.97;4990441;28;103508;-75
2021/04/08 14:25:11;;;;;;;;;1.00;1.00;;;;;13.96;43.13;98772.81;4954168;28;104485;-86
2021/04/08 14:27:41;;;;;;;;;0.00;0.00;;;;;14.05;42.39;98764.16;4951587;28;103162;-75
2021/04/08 14:30:13;;;;;;;;;1.00;1.00;;;;;14.16;42.91;98766.19;4945833;28;103695;-75
2021/04/08 14:32:44;;;;;;;;;1.00;1.00;;;;;14.26;42.34;98769.25;4954299;28;102351;-75
2021/04/08 14:35:23;;;;;;;;;1.00;1.00;;;;;14.36;42.84;98766.09;4944382;28;103010;-75
2021/04/08 14:37:56;;;;;;;;;1.50;1.50;;;;;14.48;42.93;98763.47;4993345;28;102130;-76
2021/04/08 14:40:27;;;;;;;;;2.00;1.75;;;;;14.57;43.22;98767.56;4944890;28;104115;-74
2021/04/08 14:43:00;;;;;;;;;1.50;1.50;;;;;14.66;43.46;98755.34;4962099;28;102614;-73
2021/04/08 14:45:28;;;;;;;;;2.75;2.00;;;;;14.73;43.13;98748.78;4954522;28;104623;-76
2021/04/08 14:47:59;;;;;;;;;2.00;2.00;;;;;14.82;42.74;98771.09;4935366;28;104140;-75
2021/04/08 14:50:27;;;;;;;;;2.25;2.00;;;;;14.90;42.80;98779.00;4965212;28;102086;-80
2021/04/08 14:52:54;;;;;;;;;2.25;2.25;;;;;14.90;43.22;98776.28;4950568;28;102061;-80
2021/04/08 14:55:31;;;;;;;;;3.50;3.50;;;;;14.88;43.21;98770.22;4949675;28;103800;-81
2021/04/08 14:58:00;;;;;;;;;6.25;4.00;;;;;14.91;43.19;98786.09;4946843;28;102417;-81
2021/04/08 15:00:27;;;;;;;;;2.50;2.50;;;;;14.94;42.76;98799.28;4956414;28;102212;-81
2021/04/08 15:02:57;;;;;;;;;3.00;3.00;;;;;14.96;43.03;98801.75;4959976;28;102285;-81
2021/04/08 15:05:27;;;;;;;;;3.75;3.75;;;;;14.95;42.26;98806.38;4956000;28;102671;-81
2021/04/08 15:07:54;;;;;;;;;5.00;4.00;;;;;14.94;42.77;98796.56;4947180;28;102000;-81
2021/04/08 15:10:24;;;;;;;;;4.25;3.00;;;;;14.91;42.15;98810.59;4954813;28;103420;-81
2021/04/08 15:12:59;;;;;;;;;3.50;3.50;;;;;14.91;42.24;98816.03;4944967;28;102160;-81
2021/04/08 15:15:31;;;;;;;;;5.00;4.00;;;;;14.89;42.53;98820.06;4938613;28;102616;-81
2021/04/08 15:18:00;;;;;;;;;4.00;3.00;;;;;14.87;42.00;98811.25;4932775;28;102181;-81
2021/04/08 15:20:28;;;;;;;;;3.50;3.25;;;;;14.85;42.00;98819.69;4946825;28;104883;-80
2021/04/08 15:22:57;;;;;;;;;4.00;3.00;;;;;14.86;42.64;98821.31;4941510;28;104554;-80
2021/04/08 15:25:30;;;;;;;;;3.00;3.00;;;;;14.83;42.07;98816.31;4923296;28;105130;-80
2021/04/08 15:28:08;;;;;;;;;3.25;3.00;;;;;14.81;42.29;98829.34;4932758;28;102544;-80
2021/04/08 15:30:47;;;;;;;;;3.00;3.00;;;;;14.77;41.77;98828.09;4947384;28;102299;-81
2021/04/08 15:33:17;;;;;;;;;3.00;3.00;;;;;14.77;42.33;98827.28;4946413;28;102276;-81
2021/04/08 15:35:46;;;;;;;;;4.75;3.00;;;;;14.69;42.49;98821.06;4964206;28;103610;-80
2021/04/08 15:38:19;;;;;;;;;4.25;3.75;;;;;14.73;41.59;98837.75;4969203;28;104808;-81
2021/04/08 15:40:53;;;;;;;;;5.25;3.25;;;;;14.71;41.78;98842.63;4938277;28;101854;-81
2021/04/08 15:43:26;;;;;;;;;3.75;3.00;;;;;14.68;41.46;98851.19;4972079;28;102916;-78
2021/04/08 15:46:05;;;;;;;;;5.25;3.50;;;;;14.63;41.86;98848.34;4940984;28;102268;-81
2021/04/08 15:48:39;;;;;;;;;4.00;3.00;;;;;14.64;41.91;98861.69;4946229;28;101894;-81
2021/04/08 15:51:18;;;;;;;;;4.00;3.00;;;;;14.61;41.63;98858.59;4939850;28;102217;-81
2021/04/08 15:53:56;;;;;;;;;5.50;3.75;;;;;14.55;42.02;98857.59;4931607;28;102071;-81
2021/04/08 15:56:40;;;;;;;;;2.75;2.75;;;;;14.57;41.63;98870.97;4933963;28;103949;-80
2021/04/08 15:59:17;;;;;;;;;1.00;1.00;;;;;14.55;42.32;98868.47;4945757;28;102210;-81
2021/04/08 16:01:48;;;;;;;;;4.50;3.75;;;;;14.53;41.64;98881.47;4937817;28;103571;-82
2021/04/08 16:04:18;;;;;;;;;3.00;3.00;;;;;14.53;41.33;98880.63;4960204;28;103666;-81
2021/04/08 16:06:45;;;;;;;;;3.50;3.00;;;;;14.51;41.96;98885.44;4961513;28;105118;-82
2021/04/08 16:09:14;;;;;;;;;2.75;2.75;;;;;14.50;41.12;98878.38;4947539;28;103852;-81
2021/04/08 16:11:43;;;;;;;;;2.75;2.75;;;;;14.50;42.02;98881.09;4940604;28;102680;-82
2021/04/08 16:14:11;;;;;;;;;3.00;3.00;;;;;14.49;41.76;98879.41;4933103;28;103125;-81
2021/04/08 16:16:39;;;;;;;;;2.50;2.50;;;;;14.49;41.75;98884.84;4959451;28;102947;-82
2021/04/08 16:19:08;;;;;;;;;5.50;1.75;;;;;14.47;41.32;98892.38;4943469;28;101983;-82
2021/04/08 16:22:00;;;;;;;;;5.00;3.25;;;;;14.46;41.23;98894.28;4931743;28;103673;-81
2021/04/08 16:24:43;;;;;;;;;2.00;2.00;;;;;14.43;41.41;98888.44;4967588;28;103456;-81
2021/04/08 16:27:22;;;;;;;;;2.00;2.00;;;;;14.41;41.28;98890.56;4957518;28;104330;-81
2021/04/08 16:29:56;;;;;;;;;3.00;3.00;;;;;14.41;41.05;98898.72;4945287;28;103291;-80
2021/04/08 16:32:27;;;;;;;;;3.00;2.00;;;;;14.40;41.39;98907.94;4961707;28;101990;-81
2021/04/08 16:35:01;;;;;;;;;2.75;2.00;;;;;14.37;41.61;98908.34;4949159;28;103591;-81
2021/04/08 16:37:30;;;;;;;;;2.00;2.00;;;;;14.37;41.07;98913.78;4947569;28;104882;-82
2021/04/08 16:39:58;;;;;;;;;2.00;2.00;;;;;14.30;41.67;98911.09;4947275;28;104053;-82
2021/04/08 16:42:31;;;;;;;;;2.00;2.00;;;;;14.30;41.18;98914.66;4948522;28;102305;-82
2021/04/08 16:45:04;;;;;;;;;3.00;2.50;;;;;14.30;41.08;98920.09;4970544;28;101984;-82
2021/04/08 16:47:36;;;;;;;;;4.00;2.00;;;;;14.27;41.53;98923.22;4940752;28;105235;-81
2021/04/08 16:50:06;;;;;;;;;2.25;2.00;;;;;14.24;41.51;98920.94;4938211;28;102922;-81
2021/04/08 16:52:56;;;;;;;;;2.50;2.00;;;;;14.23;41.02;98923.88;4960408;28;101976;-81
2021/04/08 16:55:33;;;;;;;;;3.75;2.00;;;;;14.19;41.15;98919.91;4945091;28;103840;-81
2021/04/08 16:58:14;;;;;;;;;3.00;2.00;;;;;14.17;40.72;98920.16;4963683;28;102429;-80
2021/04/08 17:01:01;;;;;;;;;2.75;2.00;;;;;14.16;40.83;98929.34;4942584;28;103060;-81
2021/04/08 17:03:39;;;;;;;;;3.00;3.00;;;;;14.13;40.99;98924.34;4952494;28;102082;-81
2021/04/08 17:07:01;;;;;;;;;2.00;2.00;;;;;14.11;40.89;98922.88;4984458;28;102652;-81
2021/04/08 17:10:18;;;;;;;;;2.00;2.00;;;;;14.08;40.66;98937.75;4977272;28;104273;-81
2021/04/08 17:13:00;;;;;;;;;2.25;2.00;;;;;14.04;41.37;98949.28;4958343;28;103066;-81
2021/04/08 17:15:45;;;;;;;;;2.50;2.00;;;;;14.03;40.79;98951.16;4957725;28;103063;-81
2021/04/08 17:18:48;;;;;;;;;2.00;1.50;;;;;13.99;41.16;98943.66;4957789;28;102859;-81